Seattle, Washington
Traffic Map
Current Weather Conditions
Seattle, Washington
Scattered Clouds
Scattered Clouds
59°
Feels Like: 59°
Wind Chill: 59° Ceiling: Unl
Heat Index: 59° Visibility: 10mi
Dew Point: 55° Wind: 7mph
Humidity: 88% Direction: 160° (SSE)
Pressure: 29.75in Gusts: 0mph
Raw Report DataKBFI 300753Z 16006KT 10SM FEW027 SCT110 15/13 A2975 RMK AO2 RAE40 SLP075 T01500130 402390111 PNO $
Traffic Incident Summary
Active as of:
Severity:
Category:
InformationThere was an issue retrieving the traffic information for this location. Please try a different location or try again shortly.
Advertisements
Track Severe Weather on mobile